Time;durP1;ratioP1;P1;durP2;ratioP2;P2;SDS_P1;SDS_P2;PMS_P1;PMS_P2;Temp;Humidity;BMP_temperature;BMP_pressure;BME280_temperature;BME280_humidity;BME280_pressure;Samples;Min_cycle;Max_cycle;Signal;HPM_P1;HPM_P2
2021/10/24 00:01:34;;;;;;;1.80;0.97;;;5.90;99.90;;;;;;5084820;28;20185;-81
2021/10/24 00:04:00;;;;;;;0.57;0.57;;;5.90;99.90;;;;;;5063870;28;20264;-81
2021/10/24 00:06:26;;;;;;;1.47;0.57;;;5.90;99.90;;;;;;5058796;28;20215;-81
2021/10/24 00:08:52;;;;;;;0.10;0.10;;;5.90;99.90;;;;;;5061821;28;20639;-81
2021/10/24 00:11:17;;;;;;;0.10;0.10;;;5.90;99.90;;;;;;5058248;28;20221;-81
2021/10/24 00:13:43;;;;;;;0.30;0.30;;;5.90;99.90;;;;;;5060537;28;20244;-81
2021/10/24 00:16:09;;;;;;;0.57;0.37;;;5.90;99.90;;;;;;5059071;28;20186;-81
2021/10/24 00:18:34;;;;;;;0.50;0.50;;;5.90;99.90;;;;;;5069214;28;20607;-81
2021/10/24 00:21:00;;;;;;;0.10;0.10;;;5.90;99.90;;;;;;5046872;28;20192;-81
2021/10/24 00:23:25;;;;;;;0.33;0.33;;;5.80;99.90;;;;;;5065950;28;20204;-81
2021/10/24 00:25:51;;;;;;;0.77;0.77;;;5.90;99.90;;;;;;5051974;28;20183;-82
2021/10/24 00:28:17;;;;;;;0.20;0.20;;;5.90;99.90;;;;;;5060458;28;20213;-81
2021/10/24 00:30:43;;;;;;;0.10;0.10;;;5.90;99.90;;;;;;5043785;28;20236;-82
2021/10/24 00:33:09;;;;;;;0.50;0.27;;;5.90;99.90;;;;;;5056456;28;20190;-82
2021/10/24 00:35:34;;;;;;;0.40;0.40;;;5.90;99.90;;;;;;5051693;28;20182;-81
2021/10/24 00:38:00;;;;;;;0.47;0.47;;;5.80;99.90;;;;;;5067421;28;20239;-81
2021/10/24 00:40:26;;;;;;;0.13;0.13;;;5.90;99.90;;;;;;5060362;28;20184;-82
2021/10/24 00:42:53;;;;;;;3.20;1.23;;;5.80;99.90;;;;;;5057898;28;20198;-82
2021/10/24 00:45:24;;;;;;;2.30;0.70;;;5.80;99.90;;;;;;5057943;28;20177;-81
2021/10/24 00:47:51;;;;;;;0.30;0.30;;;5.70;99.90;;;;;;5064302;28;20201;-82
2021/10/24 00:50:17;;;;;;;0.60;0.60;;;5.80;99.90;;;;;;5055473;28;20303;-81
2021/10/24 00:52:43;;;;;;;0.33;0.33;;;5.70;99.90;;;;;;5069621;28;20189;-81
2021/10/24 00:55:09;;;;;;;0.10;0.10;;;5.80;99.90;;;;;;5056963;28;20673;-81
2021/10/24 00:57:35;;;;;;;0.20;0.20;;;5.70;99.90;;;;;;5063010;28;20300;-81
2021/10/24 01:00:07;;;;;;;5.67;0.27;;;5.70;99.90;;;;;;5058727;28;20231;-81
2021/10/24 01:02:34;;;;;;;0.57;0.40;;;5.60;99.90;;;;;;5047955;28;20191;-81
2021/10/24 01:05:00;;;;;;;0.20;0.20;;;5.70;99.90;;;;;;5050142;28;20238;-81
2021/10/24 01:07:25;;;;;;;0.87;0.87;;;5.60;99.90;;;;;;5057305;28;20202;-81
2021/10/24 01:09:51;;;;;;;0.20;0.20;;;5.60;99.90;;;;;;5052228;28;20197;-81
2021/10/24 01:12:17;;;;;;;2.10;0.60;;;5.50;99.90;;;;;;5051849;28;20181;-81
2021/10/24 01:14:42;;;;;;;0.60;0.60;;;5.50;99.90;;;;;;5058531;28;20213;-82
2021/10/24 01:17:08;;;;;;;0.27;0.27;;;5.40;99.90;;;;;;5054015;28;20224;-81
2021/10/24 01:19:33;;;;;;;0.47;0.20;;;5.40;99.90;;;;;;5060930;28;20181;-81
2021/10/24 01:21:59;;;;;;;0.10;0.10;;;5.40;99.90;;;;;;5051913;28;20181;-81
2021/10/24 01:24:25;;;;;;;0.10;0.10;;;5.40;99.90;;;;;;5062063;28;20181;-81
2021/10/24 01:26:50;;;;;;;0.03;0.03;;;5.40;99.90;;;;;;5058016;28;20193;-81
2021/10/24 01:29:16;;;;;;;0.23;0.23;;;5.30;99.90;;;;;;5062082;28;20227;-81
2021/10/24 01:31:42;;;;;;;0.30;0.30;;;5.30;99.90;;;;;;5061982;28;20673;-81
2021/10/24 01:34:09;;;;;;;0.37;0.37;;;5.30;99.90;;;;;;5062286;28;20276;-81
2021/10/24 01:36:35;;;;;;;0.20;0.20;;;5.30;99.90;;;;;;5064733;28;20629;-81
2021/10/24 01:39:01;;;;;;;0.53;0.53;;;5.40;99.90;;;;;;5056033;28;20288;-81
2021/10/24 01:41:29;;;;;;;0.10;0.10;;;5.40;99.90;;;;;;5043792;28;20679;-81
2021/10/24 01:43:55;;;;;;;0.30;0.30;;;5.40;99.90;;;;;;5056853;28;20181;-81
2021/10/24 01:46:21;;;;;;;3.73;0.60;;;5.40;99.90;;;;;;5057233;28;20553;-81
2021/10/24 01:48:48;;;;;;;0.47;0.27;;;5.40;99.90;;;;;;5055013;28;20200;-81
2021/10/24 01:51:14;;;;;;;0.20;0.20;;;5.40;99.90;;;;;;5049137;28;20178;-81
2021/10/24 01:53:44;;;;;;;0.83;0.30;;;5.30;99.90;;;;;;5058614;28;20214;-81
2021/10/24 01:56:09;;;;;;;0.10;0.10;;;5.30;99.90;;;;;;5056015;28;20190;-81
2021/10/24 01:58:36;;;;;;;0.77;0.40;;;5.30;99.90;;;;;;5062120;28;20220;-81
2021/10/24 02:01:03;;;;;;;0.23;0.23;;;5.30;99.90;;;;;;5067135;28;20174;-81
2021/10/24 02:03:29;;;;;;;0.30;0.30;;;5.30;99.90;;;;;;5062736;28;20524;-82
2021/10/24 02:05:54;;;;;;;0.20;0.20;;;5.40;99.90;;;;;;5053917;28;20191;-81
2021/10/24 02:08:20;;;;;;;0.47;0.30;;;5.40;99.90;;;;;;5063967;28;20215;-81
2021/10/24 02:10:46;;;;;;;1.00;0.60;;;5.40;99.90;;;;;;5059997;28;20196;-81
2021/10/24 02:13:12;;;;;;;0.20;0.20;;;5.40;99.90;;;;;;5064863;28;20194;-81
2021/10/24 02:15:38;;;;;;;0.27;0.27;;;5.40;99.90;;;;;;5059989;28;20182;-82
2021/10/24 02:18:06;;;;;;;0.40;0.40;;;5.50;99.90;;;;;;5062472;28;20217;-81
2021/10/24 02:20:34;;;;;;;0.33;0.33;;;5.60;99.90;;;;;;5069133;28;20185;-81
2021/10/24 02:23:01;;;;;;;1.07;1.07;;;5.50;99.90;;;;;;5059382;28;20178;-81
2021/10/24 02:25:27;;;;;;;0.30;0.30;;;5.50;99.90;;;;;;5059260;28;20550;-81
2021/10/24 02:27:52;;;;;;;0.10;0.10;;;5.40;99.90;;;;;;5056026;28;20259;-81
2021/10/24 02:30:19;;;;;;;0.10;0.10;;;5.50;99.90;;;;;;5066680;28;20246;-80
2021/10/24 02:32:44;;;;;;;0.77;0.50;;;5.50;99.90;;;;;;5049358;28;20190;-81
2021/10/24 02:35:12;;;;;;;0.30;0.30;;;5.50;99.90;;;;;;5048477;28;20184;-81
2021/10/24 02:37:38;;;;;;;0.20;0.20;;;5.50;99.90;;;;;;5065500;28;20266;-81
2021/10/24 02:40:05;;;;;;;0.47;0.47;;;5.50;99.90;;;;;;5057410;28;20204;-81
2021/10/24 02:42:30;;;;;;;0.40;0.40;;;5.40;99.90;;;;;;5050388;28;20181;-81
2021/10/24 02:44:56;;;;;;;0.80;0.80;;;5.40;99.90;;;;;;5056737;28;20173;-81
2021/10/24 02:47:21;;;;;;;0.40;0.40;;;5.40;99.90;;;;;;5050684;28;20201;-81
2021/10/24 02:49:48;;;;;;;0.63;0.27;;;5.30;99.90;;;;;;5053683;28;20188;-80
2021/10/24 02:52:14;;;;;;;0.73;0.73;;;5.30;99.90;;;;;;5062832;28;20556;-81
2021/10/24 02:54:40;;;;;;;0.10;0.10;;;5.30;99.90;;;;;;5056136;28;20189;-81
2021/10/24 02:57:06;;;;;;;0.40;0.40;;;5.30;99.90;;;;;;5066183;28;20606;-81
2021/10/24 02:59:32;;;;;;;0.10;0.10;;;5.40;99.90;;;;;;5060447;28;20222;-80
2021/10/24 03:01:58;;;;;;;0.47;0.47;;;5.30;99.90;;;;;;5059484;28;20177;-81
2021/10/24 03:04:24;;;;;;;0.23;0.23;;;5.30;99.90;;;;;;5055823;28;20224;-82
2021/10/24 03:06:49;;;;;;;1.97;1.70;;;5.40;99.90;;;;;;5058047;28;20186;-81
2021/10/24 03:09:15;;;;;;;0.57;0.20;;;5.40;99.90;;;;;;5067067;28;20256;-81
2021/10/24 03:11:41;;;;;;;0.10;0.10;;;5.40;99.90;;;;;;5054035;28;20193;-81
2021/10/24 03:14:07;;;;;;;0.20;0.20;;;5.40;99.90;;;;;;5063549;28;20178;-81
2021/10/24 03:16:36;;;;;;;0.13;0.13;;;5.30;99.90;;;;;;5057334;28;20193;-81
2021/10/24 03:19:03;;;;;;;0.23;0.23;;;5.30;99.90;;;;;;5053668;28;20263;-81
2021/10/24 03:21:30;;;;;;;0.20;0.20;;;5.30;99.90;;;;;;5052957;28;20182;-81
2021/10/24 03:23:57;;;;;;;0.27;0.27;;;5.30;99.90;;;;;;5058180;28;20180;-81
2021/10/24 03:26:23;;;;;;;0.30;0.30;;;5.30;99.90;;;;;;5055059;28;20193;-81
2021/10/24 03:28:49;;;;;;;0.30;0.30;;;5.30;99.90;;;;;;5064547;28;20244;-82
2021/10/24 03:31:14;;;;;;;0.20;0.20;;;5.30;99.90;;;;;;5057128;28;20187;-81
2021/10/24 03:33:40;;;;;;;0.37;0.37;;;5.30;99.90;;;;;;5065648;28;20183;-81
2021/10/24 03:36:05;;;;;;;0.30;0.13;;;5.20;99.90;;;;;;5061586;28;20181;-81
2021/10/24 03:38:31;;;;;;;0.40;0.40;;;5.10;99.90;;;;;;5062845;28;20217;-81
2021/10/24 03:40:57;;;;;;;0.20;0.20;;;5.10;99.90;;;;;;5060616;28;20256;-79
2021/10/24 03:43:24;;;;;;;0.53;0.53;;;5.10;99.90;;;;;;5041720;28;20224;-80
2021/10/24 03:45:50;;;;;;;0.50;0.50;;;5.10;99.90;;;;;;5088623;28;20665;-80
2021/10/24 03:48:15;;;;;;;0.23;0.23;;;5.10;99.90;;;;;;5059421;28;20288;-80
2021/10/24 03:50:41;;;;;;;0.67;0.50;;;5.10;99.90;;;;;;5060858;28;20184;-80
2021/10/24 03:53:07;;;;;;;0.10;0.10;;;5.00;99.90;;;;;;5061125;28;20210;-80
2021/10/24 03:55:32;;;;;;;0.83;0.27;;;5.00;99.90;;;;;;5061840;28;20299;-80
2021/10/24 03:57:58;;;;;;;0.50;0.20;;;5.10;99.90;;;;;;5043259;28;20210;-80
2021/10/24 04:00:23;;;;;;;0.10;0.10;;;5.10;99.90;;;;;;5057498;28;20185;-79
2021/10/24 04:03:06;;;;;;;1.00;0.90;;;5.20;99.90;;;;;;5051743;28;20782;-79
2021/10/24 04:05:33;;;;;;;0.20;0.20;;;5.20;99.90;;;;;;5049881;28;20186;-81
2021/10/24 04:08:00;;;;;;;0.00;0.00;;;5.20;99.90;;;;;;5050338;28;20212;-80
2021/10/24 04:10:27;;;;;;;0.23;0.23;;;5.30;99.90;;;;;;5049712;28;20190;-80
2021/10/24 04:12:53;;;;;;;3.03;0.40;;;5.30;99.90;;;;;;5059870;28;20216;-80
2021/10/24 04:15:20;;;;;;;0.30;0.30;;;5.30;99.90;;;;;;5054979;28;20194;-80
2021/10/24 04:17:46;;;;;;;0.13;0.13;;;5.30;99.90;;;;;;5047024;28;20222;-80
2021/10/24 04:20:18;;;;;;;0.47;0.40;;;5.40;99.90;;;;;;5056537;28;20631;-80
2021/10/24 04:22:43;;;;;;;0.93;0.67;;;5.40;99.90;;;;;;5053784;28;20663;-80
2021/10/24 04:25:11;;;;;;;0.10;0.10;;;5.30;99.90;;;;;;5053498;28;20238;-80
2021/10/24 04:27:37;;;;;;;0.10;0.10;;;5.30;99.90;;;;;;5045865;28;20213;-80
2021/10/24 04:30:06;;;;;;;0.57;0.57;;;5.30;99.90;;;;;;5055354;28;20211;-80
2021/10/24 04:32:31;;;;;;;0.20;0.20;;;5.30;99.90;;;;;;5046342;28;20187;-80
2021/10/24 04:34:57;;;;;;;0.73;0.60;;;5.30;99.90;;;;;;5056150;28;20330;-80
2021/10/24 04:37:22;;;;;;;0.27;0.20;;;5.30;99.90;;;;;;5046145;28;20220;-80
2021/10/24 04:39:48;;;;;;;0.20;0.20;;;5.20;99.90;;;;;;5059091;28;20188;-79
2021/10/24 04:42:14;;;;;;;0.27;0.27;;;5.30;99.90;;;;;;5051864;28;20186;-80
2021/10/24 04:44:40;;;;;;;0.20;0.20;;;5.20;99.90;;;;;;5095787;28;20262;-80
2021/10/24 04:47:05;;;;;;;0.13;0.13;;;5.10;99.90;;;;;;5065685;28;20185;-80
2021/10/24 04:49:31;;;;;;;0.23;0.23;;;5.10;99.90;;;;;;5055521;28;20196;-80
2021/10/24 04:51:57;;;;;;;0.17;0.17;;;5.10;99.90;;;;;;5042715;28;20239;-79
2021/10/24 04:54:24;;;;;;;0.70;0.50;;;5.00;99.90;;;;;;5048232;28;20514;-80
2021/10/24 04:56:53;;;;;;;0.13;0.13;;;5.00;99.90;;;;;;5049994;28;20194;-79
2021/10/24 04:59:19;;;;;;;0.67;0.30;;;5.10;99.90;;;;;;5055543;28;20223;-79
2021/10/24 05:01:48;;;;;;;0.13;0.13;;;5.10;99.90;;;;;;5048173;28;20230;-80
2021/10/24 05:04:13;;;;;;;0.70;0.30;;;5.10;99.90;;;;;;5048084;28;20189;-80
2021/10/24 05:06:39;;;;;;;0.00;0.00;;;5.10;99.90;;;;;;5056370;28;20204;-80
2021/10/24 05:09:05;;;;;;;0.20;0.20;;;5.10;99.90;;;;;;5053042;28;20203;-80
2021/10/24 05:11:31;;;;;;;2.30;0.30;;;5.00;99.90;;;;;;5052660;28;20273;-82
2021/10/24 05:14:00;;;;;;;0.30;0.30;;;5.10;99.90;;;;;;5063605;28;20605;-82
2021/10/24 05:16:25;;;;;;;0.13;0.13;;;5.10;99.90;;;;;;5049966;28;20233;-81
2021/10/24 05:18:51;;;;;;;0.13;0.13;;;5.10;99.90;;;;;;5058256;28;20804;-81
2021/10/24 05:21:17;;;;;;;0.20;0.20;;;5.10;99.90;;;;;;5053598;28;20182;-81
2021/10/24 05:23:42;;;;;;;0.20;0.20;;;5.10;99.90;;;;;;5052606;28;21786;-82
2021/10/24 05:26:08;;;;;;;0.17;0.17;;;5.10;99.90;;;;;;5049442;28;20182;-81
2021/10/24 05:28:34;;;;;;;0.27;0.27;;;5.10;99.90;;;;;;5057168;28;20220;-80
2021/10/24 05:31:00;;;;;;;0.30;0.30;;;5.10;99.90;;;;;;5056722;28;20646;-80
2021/10/24 05:33:26;;;;;;;0.20;0.20;;;5.00;99.90;;;;;;5058318;28;20188;-80
2021/10/24 05:35:54;;;;;;;4.37;0.90;;;5.00;99.90;;;;;;5060146;28;20189;-81
2021/10/24 05:38:21;;;;;;;0.10;0.10;;;5.00;99.90;;;;;;5052616;28;20220;-80
2021/10/24 05:40:48;;;;;;;1.87;1.10;;;4.90;99.90;;;;;;5058646;28;20234;-80
2021/10/24 05:43:14;;;;;;;1.00;0.40;;;4.90;99.90;;;;;;5049194;28;20178;-80
2021/10/24 05:45:43;;;;;;;0.10;0.10;;;4.80;99.90;;;;;;5065072;28;20205;-80
2021/10/24 05:48:09;;;;;;;0.20;0.20;;;4.70;99.90;;;;;;5048706;28;20204;-81
2021/10/24 05:50:35;;;;;;;0.73;0.73;;;4.70;99.90;;;;;;5059248;28;20389;-80
2021/10/24 05:53:00;;;;;;;0.27;0.27;;;4.60;99.90;;;;;;5059858;28;20212;-81
2021/10/24 05:55:26;;;;;;;0.87;0.67;;;4.60;99.90;;;;;;5052148;28;20201;-80
2021/10/24 05:57:51;;;;;;;0.40;0.40;;;4.60;99.90;;;;;;5056226;28;20310;-80
2021/10/24 06:00:17;;;;;;;0.30;0.30;;;4.50;99.90;;;;;;5055106;28;20192;-80
2021/10/24 06:02:42;;;;;;;0.20;0.20;;;4.60;99.90;;;;;;5054595;28;20230;-80
2021/10/24 06:05:08;;;;;;;0.20;0.20;;;4.60;99.90;;;;;;5048327;28;20180;-80
2021/10/24 06:07:35;;;;;;;0.10;0.10;;;4.70;99.90;;;;;;5056036;28;20294;-81
2021/10/24 06:10:06;;;;;;;0.17;0.10;;;4.70;99.90;;;;;;5070139;28;20703;-80
2021/10/24 06:14:59;;;;;;;0.23;0.23;;;4.80;99.90;;;;;;5057068;28;20654;-80
2021/10/24 06:17:25;;;;;;;0.77;0.77;;;4.80;99.90;;;;;;5059345;28;20239;-80
2021/10/24 06:19:51;;;;;;;0.30;0.30;;;4.90;99.90;;;;;;5061305;28;20177;-80
2021/10/24 06:22:16;;;;;;;0.37;0.37;;;4.90;99.90;;;;;;5052016;28;20197;-80
2021/10/24 06:24:42;;;;;;;0.17;0.17;;;5.00;99.90;;;;;;5053139;28;20235;-80
2021/10/24 06:27:07;;;;;;;0.10;0.10;;;5.10;99.90;;;;;;5052479;28;20221;-80
2021/10/24 06:29:33;;;;;;;0.10;0.10;;;5.30;99.90;;;;;;5051002;28;20213;-80
2021/10/24 06:31:59;;;;;;;0.47;0.47;;;5.40;99.90;;;;;;5052331;28;20615;-80
2021/10/24 06:34:24;;;;;;;0.10;0.10;;;5.50;99.90;;;;;;5046228;28;20200;-80
2021/10/24 06:36:50;;;;;;;0.33;0.33;;;5.60;99.90;;;;;;5052624;28;20225;-80
2021/10/24 06:39:15;;;;;;;0.20;0.20;;;5.60;99.90;;;;;;5052872;28;20217;-81
2021/10/24 06:41:41;;;;;;;0.10;0.10;;;5.70;99.90;;;;;;5052426;28;20228;-80
2021/10/24 06:44:06;;;;;;;0.23;0.23;;;5.80;99.90;;;;;;5049927;28;20181;-80
2021/10/24 06:46:32;;;;;;;0.23;0.23;;;5.80;99.90;;;;;;5051123;28;20186;-80
2021/10/24 06:48:58;;;;;;;0.50;0.50;;;5.90;99.90;;;;;;5056504;28;20197;-81
2021/10/24 06:51:23;;;;;;;3.53;0.53;;;5.80;99.90;;;;;;5062350;28;20189;-81
2021/10/24 06:53:49;;;;;;;0.43;0.10;;;5.80;99.90;;;;;;5054034;28;20261;-81
2021/10/24 06:56:14;;;;;;;0.30;0.30;;;5.90;99.90;;;;;;5053901;28;20189;-80
2021/10/24 06:58:40;;;;;;;0.10;0.10;;;6.00;99.90;;;;;;5051911;28;20664;-80
2021/10/24 07:01:05;;;;;;;0.10;0.10;;;6.10;99.90;;;;;;5052223;28;20173;-80
2021/10/24 07:03:31;;;;;;;1.53;1.43;;;6.00;99.90;;;;;;5051917;28;20558;-81
2021/10/24 07:05:56;;;;;;;0.40;0.40;;;6.00;99.90;;;;;;5050958;28;20205;-81
2021/10/24 07:08:22;;;;;;;0.20;0.20;;;6.20;99.90;;;;;;5048075;28;20210;-83
2021/10/24 07:10:48;;;;;;;0.30;0.30;;;6.40;99.90;;;;;;5061695;28;20228;-82
2021/10/24 07:13:14;;;;;;;0.10;0.10;;;6.60;99.90;;;;;;5046801;28;20216;-81
2021/10/24 07:15:39;;;;;;;0.37;0.37;;;6.70;99.90;;;;;;5055658;28;20212;-81
2021/10/24 07:18:05;;;;;;;0.30;0.30;;;6.90;99.90;;;;;;5066637;28;20689;-81
2021/10/24 07:20:31;;;;;;;0.10;0.10;;;6.80;99.90;;;;;;5066327;28;20535;-81
2021/10/24 07:22:56;;;;;;;0.20;0.20;;;6.70;99.90;;;;;;5043266;28;20177;-81
2021/10/24 07:25:23;;;;;;;0.30;0.30;;;6.60;99.90;;;;;;5043094;28;20205;-81
2021/10/24 07:27:50;;;;;;;2.70;0.40;;;6.60;99.90;;;;;;5075729;28;20564;-81
2021/10/24 07:30:16;;;;;;;0.23;0.23;;;6.80;99.90;;;;;;5043003;28;20719;-81
2021/10/24 07:32:41;;;;;;;1.00;0.73;;;6.90;99.90;;;;;;5056174;28;20277;-81
2021/10/24 07:35:07;;;;;;;0.30;0.30;;;6.90;99.90;;;;;;5052896;28;20181;-81
2021/10/24 07:37:33;;;;;;;0.20;0.20;;;7.10;99.90;;;;;;5056416;28;20283;-82
2021/10/24 07:39:59;;;;;;;0.17;0.17;;;7.20;99.90;;;;;;5060025;28;20177;-81
2021/10/24 07:42:26;;;;;;;0.30;0.30;;;7.30;99.90;;;;;;5055825;28;20174;-81
2021/10/24 07:44:51;;;;;;;0.37;0.30;;;7.40;99.90;;;;;;5046586;28;20186;-81
2021/10/24 07:47:17;;;;;;;0.20;0.20;;;7.60;99.90;;;;;;5048267;28;20684;-81
2021/10/24 07:49:43;;;;;;;0.30;0.30;;;7.60;99.90;;;;;;5068321;28;20188;-81
2021/10/24 07:52:09;;;;;;;0.13;0.13;;;7.70;99.90;;;;;;5060867;28;20181;-81
2021/10/24 07:54:35;;;;;;;0.27;0.27;;;8.00;99.90;;;;;;5049735;28;20235;-81
2021/10/24 07:57:00;;;;;;;0.20;0.20;;;8.40;99.90;;;;;;5063032;28;20701;-81
2021/10/24 07:59:26;;;;;;;0.97;0.90;;;8.60;99.90;;;;;;5063875;28;20555;-81
2021/10/24 08:01:52;;;;;;;0.17;0.17;;;8.60;99.90;;;;;;5051841;28;20223;-81
2021/10/24 08:04:19;;;;;;;0.70;0.30;;;8.50;99.90;;;;;;5047532;28;20193;-81
2021/10/24 08:06:45;;;;;;;0.67;0.30;;;8.90;99.90;;;;;;5065609;28;20182;-81
2021/10/24 08:09:12;;;;;;;0.10;0.10;;;8.60;99.90;;;;;;5044493;28;20335;-81
2021/10/24 08:11:39;;;;;;;0.20;0.20;;;8.60;99.90;;;;;;5060621;28;20210;-81
2021/10/24 08:14:06;;;;;;;0.20;0.20;;;8.80;99.90;;;;;;5053763;28;20182;-82
2021/10/24 08:16:39;;;;;;;0.90;0.60;;;8.90;99.90;;;;;;5054898;28;20182;-82
2021/10/24 08:19:05;;;;;;;0.50;0.50;;;9.10;99.90;;;;;;5048127;28;20302;-83
2021/10/24 08:21:32;;;;;;;0.40;0.40;;;9.20;99.90;;;;;;5048505;28;20262;-81
2021/10/24 08:23:57;;;;;;;0.30;0.30;;;9.40;99.90;;;;;;5050167;28;20267;-81
2021/10/24 08:26:23;;;;;;;0.10;0.10;;;9.60;99.90;;;;;;5050226;28;20626;-81
2021/10/24 08:28:49;;;;;;;0.67;0.53;;;9.40;99.90;;;;;;5046463;28;20681;-81
2021/10/24 08:31:17;;;;;;;0.20;0.20;;;9.00;99.90;;;;;;5059434;28;20181;-81
2021/10/24 08:33:44;;;;;;;0.27;0.27;;;8.80;99.90;;;;;;5063030;28;20207;-81
2021/10/24 08:36:10;;;;;;;0.33;0.33;;;8.80;99.90;;;;;;5060339;28;20185;-80
2021/10/24 08:38:36;;;;;;;0.40;0.40;;;9.10;99.90;;;;;;5050625;28;20733;-81
2021/10/24 08:41:02;;;;;;;0.40;0.40;;;9.10;99.90;;;;;;5053494;28;20203;-81
2021/10/24 08:43:32;;;;;;;0.50;0.50;;;9.40;99.90;;;;;;5055862;28;20175;-80
2021/10/24 08:46:02;;;;;;;0.60;0.20;;;9.70;99.90;;;;;;5056531;28;20633;-81
2021/10/24 08:48:27;;;;;;;0.23;0.23;;;9.90;99.90;;;;;;5061161;28;20254;-81
2021/10/24 08:50:53;;;;;;;0.20;0.20;;;9.50;99.90;;;;;;5052498;28;20188;-81
2021/10/24 08:53:23;;;;;;;0.37;0.37;;;9.30;99.90;;;;;;5063746;28;20178;-81
2021/10/24 08:55:49;;;;;;;0.97;0.77;;;9.70;99.90;;;;;;5055319;28;20532;-81
2021/10/24 08:58:16;;;;;;;0.57;0.47;;;10.20;99.90;;;;;;5063268;28;20259;-81
2021/10/24 09:00:42;;;;;;;0.73;0.53;;;10.50;99.90;;;;;;5060854;28;20388;-81
2021/10/24 09:03:11;;;;;;;0.73;0.73;;;10.80;99.90;;;;;;5064108;28;20169;-81
2021/10/24 09:05:42;;;;;;;0.73;0.70;;;11.00;99.90;;;;;;5065608;28;20175;-81
2021/10/24 09:08:23;;;;;;;0.20;0.20;;;11.20;99.90;;;;;;5048811;28;20278;-81
2021/10/24 09:10:52;;;;;;;0.50;0.40;;;11.30;99.90;;;;;;5051820;28;20190;-81
2021/10/24 09:13:19;;;;;;;1.50;0.83;;;10.80;99.90;;;;;;5045793;28;20280;-81
2021/10/24 09:15:49;;;;;;;0.40;0.40;;;10.60;99.90;;;;;;5054535;28;20268;-81
2021/10/24 09:18:17;;;;;;;0.23;0.23;;;10.80;99.90;;;;;;5064203;28;20203;-81
2021/10/24 09:20:43;;;;;;;0.93;0.93;;;11.00;99.90;;;;;;5059890;28;20189;-82
2021/10/24 09:23:11;;;;;;;0.43;0.43;;;11.30;99.90;;;;;;5051405;28;20183;-81
2021/10/24 09:26:03;;;;;;;0.43;0.43;;;11.40;99.90;;;;;;5064531;28;20192;-82
2021/10/24 09:28:30;;;;;;;0.40;0.40;;;11.70;99.90;;;;;;5059788;28;20229;-81
2021/10/24 09:31:04;;;;;;;1.53;0.93;;;11.90;99.90;;;;;;5060184;28;20188;-81
2021/10/24 09:33:47;;;;;;;0.60;0.20;;;12.00;99.90;;;;;;5056943;28;20191;-81
2021/10/24 09:36:21;;;;;;;0.40;0.40;;;11.90;99.90;;;;;;5057961;28;20184;-81
2021/10/24 09:38:47;;;;;;;0.60;0.60;;;12.10;99.90;;;;;;5053101;28;20300;-81
2021/10/24 09:41:12;;;;;;;0.40;0.40;;;12.10;99.90;;;;;;5063410;28;20607;-81
2021/10/24 09:43:38;;;;;;;0.50;0.50;;;12.20;99.90;;;;;;5056896;28;20265;-82
2021/10/24 09:46:04;;;;;;;0.40;0.40;;;11.70;99.90;;;;;;5056897;28;20174;-81
2021/10/24 09:48:31;;;;;;;0.30;0.30;;;11.90;99.90;;;;;;5056782;28;20207;-81
2021/10/24 09:51:08;;;;;;;0.33;0.33;;;12.00;99.90;;;;;;5062752;28;20233;-82
2021/10/24 09:53:38;;;;;;;0.20;0.20;;;12.30;99.90;;;;;;5059916;28;20258;-81
2021/10/24 09:56:08;;;;;;;0.33;0.33;;;12.50;99.90;;;;;;5044604;28;20254;-82
2021/10/24 09:58:40;;;;;;;0.73;0.30;;;12.60;99.90;;;;;;5046196;28;20222;-82
2021/10/24 10:01:08;;;;;;;0.33;0.33;;;12.80;99.90;;;;;;5051373;28;20285;-82
2021/10/24 10:03:35;;;;;;;0.27;0.27;;;13.00;99.90;;;;;;5059939;28;20189;-81
2021/10/24 10:06:01;;;;;;;1.10;0.73;;;13.10;99.90;;;;;;5049454;28;20560;-81
2021/10/24 10:08:27;;;;;;;0.47;0.47;;;13.20;99.90;;;;;;5051031;28;20206;-82
2021/10/24 10:11:06;;;;;;;1.93;0.43;;;13.20;99.90;;;;;;5061548;28;20185;-81
2021/10/24 10:13:36;;;;;;;0.40;0.40;;;13.20;99.90;;;;;;5051255;28;20646;-81
2021/10/24 10:16:08;;;;;;;0.17;0.17;;;13.40;99.90;;;;;;5042822;28;20191;-81
2021/10/24 10:18:55;;;;;;;0.10;0.10;;;13.50;99.90;;;;;;5057251;28;20234;-82
2021/10/24 10:21:28;;;;;;;0.53;0.53;;;13.40;99.90;;;;;;5056691;28;20554;-82
2021/10/24 10:23:54;;;;;;;2.87;0.30;;;13.10;99.90;;;;;;5064910;28;20185;-82
2021/10/24 10:26:35;;;;;;;0.40;0.40;;;13.20;99.90;;;;;;5050064;28;20194;-82
2021/10/24 10:29:07;;;;;;;0.80;0.40;;;13.40;99.90;;;;;;5057742;28;20217;-81
2021/10/24 10:31:35;;;;;;;0.30;0.30;;;13.60;99.90;;;;;;5090290;28;20610;-81
2021/10/24 10:34:01;;;;;;;0.23;0.23;;;13.30;99.90;;;;;;5049081;28;20185;-81
2021/10/24 10:36:46;;;;;;;0.33;0.33;;;13.50;99.90;;;;;;5047804;28;20210;-82
2021/10/24 10:39:31;;;;;;;1.13;0.27;;;13.70;99.90;;;;;;5047985;28;20693;-81
2021/10/24 10:42:20;;;;;;;1.37;0.30;;;13.90;99.90;;;;;;5052436;28;20180;-82
2021/10/24 10:45:14;;;;;;;0.40;0.27;;;13.70;99.90;;;;;;5049769;28;20194;-81
2021/10/24 10:48:21;;;;;;;0.53;0.53;;;13.90;99.90;;;;;;5056309;28;20206;-82
2021/10/24 10:50:48;;;;;;;0.70;0.47;;;13.90;99.90;;;;;;5058064;28;20179;-81
2021/10/24 10:53:36;;;;;;;0.20;0.20;;;14.10;99.90;;;;;;5061281;28;20215;-82
2021/10/24 10:56:03;;;;;;;0.30;0.30;;;14.10;99.90;;;;;;5043391;28;20548;-82
2021/10/24 10:58:31;;;;;;;0.40;0.40;;;13.90;99.90;;;;;;5043964;28;20259;-82
2021/10/24 11:00:57;;;;;;;0.20;0.20;;;14.00;99.90;;;;;;5062804;28;20175;-82
2021/10/24 11:03:46;;;;;;;0.37;0.37;;;13.50;99.90;;;;;;5043265;28;20183;-82
2021/10/24 11:06:36;;;;;;;0.30;0.20;;;13.50;99.90;;;;;;5048883;28;20211;-82
2021/10/24 11:09:32;;;;;;;0.30;0.30;;;13.40;99.90;;;;;;5047501;28;20811;-82
2021/10/24 11:11:58;;;;;;;0.40;0.30;;;13.20;99.90;;;;;;5065251;28;20200;-81
2021/10/24 11:14:32;;;;;;;0.30;0.30;;;12.70;99.90;;;;;;5052256;28;20197;-82
2021/10/24 11:16:59;;;;;;;0.20;0.20;;;13.00;99.90;;;;;;5050788;28;20598;-82
2021/10/24 11:19:32;;;;;;;0.60;0.60;;;13.10;99.90;;;;;;5053626;28;20264;-82
2021/10/24 11:22:05;;;;;;;1.80;0.80;;;13.30;99.90;;;;;;5050675;28;20185;-82
2021/10/24 11:24:37;;;;;;;0.70;0.70;;;13.00;99.90;;;;;;5060746;28;20180;-81
2021/10/24 11:27:05;;;;;;;0.37;0.37;;;12.90;99.90;;;;;;5039661;28;20183;-81
2021/10/24 11:29:32;;;;;;;0.23;0.23;;;12.70;99.90;;;;;;5050579;28;20220;-81
2021/10/24 11:32:26;;;;;;;2.43;0.57;;;13.20;99.90;;;;;;5052656;28;20596;-81
2021/10/24 11:35:00;;;;;;;0.50;0.50;;;13.40;99.90;;;;;;5049127;28;20642;-82
2021/10/24 11:37:47;;;;;;;0.20;0.20;;;13.50;99.90;;;;;;5056903;28;20216;-82
2021/10/24 11:40:13;;;;;;;0.40;0.20;;;13.70;99.90;;;;;;5050344;28;20169;-81
2021/10/24 11:42:39;;;;;;;0.40;0.40;;;13.80;99.90;;;;;;5049550;28;20644;-82
2021/10/24 11:45:22;;;;;;;0.10;0.10;;;13.60;99.90;;;;;;5059912;28;20219;-82
2021/10/24 11:48:26;;;;;;;0.20;0.20;;;13.60;99.90;;;;;;5057071;28;20289;-80
2021/10/24 11:51:05;;;;;;;0.30;0.30;;;13.70;99.90;;;;;;5079520;28;20292;-82
2021/10/24 11:53:39;;;;;;;0.50;0.20;;;14.00;99.90;;;;;;5057530;28;20678;-82
2021/10/24 11:56:07;;;;;;;2.40;0.50;;;14.20;99.90;;;;;;5053511;28;20181;-83
2021/10/24 12:01:28;;;;;;;5.83;0.77;;;13.60;99.90;;;;;;5051762;28;20191;-82
2021/10/24 12:04:03;;;;;;;0.47;0.47;;;13.20;99.90;;;;;;5063235;28;20182;-82
2021/10/24 12:07:00;;;;;;;0.53;0.50;;;13.40;99.90;;;;;;5056284;28;20169;-82
2021/10/24 12:09:34;;;;;;;0.30;0.30;;;13.70;99.90;;;;;;5045816;28;20714;-83
2021/10/24 12:12:12;;;;;;;0.27;0.27;;;14.20;99.90;;;;;;5042432;28;20655;-83
2021/10/24 12:14:47;;;;;;;3.10;0.40;;;14.20;99.90;;;;;;5047120;28;20232;-82
2021/10/24 12:17:20;;;;;;;0.30;0.30;;;13.90;99.90;;;;;;5058966;28;20202;-82
2021/10/24 12:19:47;;;;;;;3.13;0.83;;;14.20;99.90;;;;;;5058510;28;20182;-83
2021/10/24 12:22:12;;;;;;;1.53;1.33;;;13.50;99.90;;;;;;5065071;28;20262;-82
2021/10/24 12:24:48;;;;;;;1.20;0.97;;;13.20;99.90;;;;;;5058244;28;20276;-83
2021/10/24 12:27:30;;;;;;;0.43;0.43;;;13.20;99.90;;;;;;5038418;28;20209;-84
2021/10/24 12:29:58;;;;;;;0.50;0.50;;;13.60;99.90;;;;;;5063493;28;20193;-84
2021/10/24 12:32:24;;;;;;;0.83;0.70;;;13.90;99.90;;;;;;5053341;28;20204;-82
2021/10/24 12:34:58;;;;;;;0.20;0.20;;;13.80;99.90;;;;;;5059449;28;20657;-82
2021/10/24 12:37:26;;;;;;;0.30;0.30;;;13.70;99.90;;;;;;5050706;28;20216;-82
2021/10/24 12:40:14;;;;;;;0.40;0.40;;;13.80;99.90;;;;;;5050696;28;20238;-82
2021/10/24 12:42:58;;;;;;;0.67;0.40;;;13.50;99.90;;;;;;5056170;28;20175;-82
2021/10/24 12:45:23;;;;;;;0.60;0.53;;;13.70;99.90;;;;;;5058586;28;20182;-82
2021/10/24 12:47:57;;;;;;;0.93;0.63;;;14.00;99.90;;;;;;5055173;28;20209;-82
2021/10/24 12:50:35;;;;;;;0.30;0.30;;;13.60;99.90;;;;;;5059859;28;20535;-82
2021/10/24 12:53:05;;;;;;;1.07;1.03;;;13.30;99.90;;;;;;5048332;28;20181;-83
2021/10/24 12:55:32;;;;;;;3.83;0.47;;;13.30;99.90;;;;;;5052519;28;20190;-82
2021/10/24 12:58:00;;;;;;;0.67;0.47;;;13.30;99.90;;;;;;5046158;28;20255;-82
2021/10/24 13:00:29;;;;;;;0.53;0.40;;;13.60;99.90;;;;;;5040717;28;20655;-84
2021/10/24 13:02:55;;;;;;;2.20;1.30;;;13.80;99.90;;;;;;5038328;28;20192;-81
2021/10/24 13:05:22;;;;;;;0.50;0.50;;;13.30;99.90;;;;;;5036141;28;20178;-81